createdAt,value
2022-09-23T00:03:02.315Z,8.04
2022-09-23T00:06:13.033Z,8.02
2022-09-23T00:09:15.019Z,8.02
2022-09-23T00:12:18.198Z,7.97
2022-09-23T00:15:20.233Z,7.99
2022-09-23T00:18:22.159Z,7.96
2022-09-23T00:21:25.319Z,7.97
2022-09-23T00:24:32.264Z,7.97
2022-09-23T00:27:34.172Z,8.01
2022-09-23T00:30:36.032Z,7.99
2022-09-23T00:33:38.186Z,8.01
2022-09-23T00:36:40.505Z,8.00
2022-09-23T00:39:42.413Z,8.02
2022-09-23T00:42:52.311Z,8.02
2022-09-23T00:45:54.987Z,8.01
2022-09-23T00:49:03.205Z,7.98
2022-09-23T00:52:12.625Z,7.99
2022-09-23T00:55:19.209Z,7.98
2022-09-23T00:58:28.040Z,7.99
2022-09-23T01:01:30.146Z,7.93
2022-09-23T01:04:31.989Z,7.92
2022-09-23T01:07:34.973Z,7.90
2022-09-23T01:10:47.781Z,7.89
2022-09-23T01:14:08.473Z,7.88
2022-09-23T01:17:22.153Z,7.86
2022-09-23T01:20:49.144Z,7.88
2022-09-23T01:24:24.299Z,7.86
2022-09-23T01:27:36.777Z,7.86
2022-09-23T01:30:47.754Z,7.87
2022-09-23T01:33:58.081Z,7.89
2022-09-23T01:37:35.430Z,7.93
2022-09-23T01:41:05.124Z,7.97
2022-09-23T01:44:42.292Z,7.99
2022-09-23T01:47:58.619Z,7.95
2022-09-23T01:51:13.686Z,7.90
2022-09-23T01:54:58.377Z,7.89
2022-09-23T01:58:23.790Z,7.82
2022-09-23T02:01:39.394Z,7.79
2022-09-23T02:04:51.578Z,7.75
2022-09-23T02:07:59.491Z,7.72
2022-09-23T02:11:08.859Z,7.70
2022-09-23T02:14:33.309Z,7.71
2022-09-23T02:17:43.592Z,7.70
2022-09-23T02:20:47.545Z,7.67
2022-09-23T02:23:54.909Z,7.65
2022-09-23T02:27:34.979Z,7.63
2022-09-23T02:30:49.012Z,7.60
2022-09-23T02:34:13.198Z,7.55
2022-09-23T02:37:45.137Z,7.51
2022-09-23T02:40:59.214Z,7.46
2022-09-23T02:44:03.616Z,7.42
2022-09-23T02:47:05.680Z,7.37
2022-09-23T02:50:09.490Z,7.34
2022-09-23T02:53:11.385Z,7.36
2022-09-23T02:56:20.167Z,7.36
2022-09-23T02:59:23.833Z,7.37
2022-09-23T03:02:34.364Z,7.35
2022-09-23T03:05:45.193Z,7.37
2022-09-23T03:08:56.855Z,7.36
2022-09-23T03:12:15.607Z,7.32
2022-09-23T03:15:36.152Z,7.28
2022-09-23T03:18:55.445Z,7.25
2022-09-23T03:22:14.440Z,7.20
2022-09-23T03:25:21.271Z,7.14
2022-09-23T03:28:25.595Z,7.14
2022-09-23T03:31:28.506Z,7.10
2022-09-23T03:34:34.567Z,7.09
2022-09-23T03:37:45.073Z,7.07
2022-09-23T03:40:51.106Z,7.08
2022-09-23T03:43:53.557Z,7.07
2022-09-23T03:46:59.101Z,7.08
2022-09-23T03:50:01.647Z,7.08
2022-09-23T03:53:03.448Z,7.06
2022-09-23T03:56:05.395Z,7.08
2022-09-23T03:59:07.245Z,7.09
2022-09-23T04:02:10.072Z,7.11
2022-09-23T04:05:13.563Z,7.12
2022-09-23T04:08:15.387Z,7.15
2022-09-23T04:11:17.228Z,7.14
2022-09-23T04:14:20.381Z,7.11
2022-09-23T04:17:22.297Z,7.10
2022-09-23T04:20:24.140Z,7.07
2022-09-23T04:23:27.244Z,7.04
2022-09-23T04:26:29.139Z,7.04
2022-09-23T04:29:31.286Z,7.01
2022-09-23T04:32:33.281Z,7.00
2022-09-23T04:35:39.914Z,7.00
2022-09-23T04:38:49.236Z,7.01
2022-09-23T04:41:51.521Z,7.01
2022-09-23T04:44:54.488Z,7.03
2022-09-23T04:47:58.474Z,7.03
2022-09-23T04:51:08.443Z,7.04
2022-09-23T04:54:12.143Z,7.03
2022-09-23T04:57:14.662Z,7.03
2022-09-23T05:00:16.550Z,7.04
2022-09-23T05:03:18.484Z,7.07
2022-09-23T05:06:21.222Z,7.10
2022-09-23T05:09:23.065Z,7.11
2022-09-23T05:12:24.678Z,7.13
2022-09-23T05:15:27.710Z,7.18
2022-09-23T05:18:33.581Z,7.19
2022-09-23T05:21:38.527Z,7.22
2022-09-23T05:24:40.370Z,7.28
2022-09-23T05:27:42.336Z,7.31
2022-09-23T05:30:44.958Z,7.34
2022-09-23T05:33:49.275Z,7.41
2022-09-23T05:36:51.194Z,7.48
2022-09-23T05:39:53.167Z,7.55
2022-09-23T05:42:54.792Z,7.61
2022-09-23T05:46:08.407Z,7.70
2022-09-23T05:49:10.611Z,7.78
2022-09-23T05:52:12.390Z,7.85
2022-09-23T05:55:14.944Z,7.90
2022-09-23T05:58:16.609Z,7.95
2022-09-23T06:01:27.598Z,7.99
2022-09-23T06:04:29.489Z,8.09
2022-09-23T06:07:32.723Z,8.15
2022-09-23T06:10:43.243Z,8.23
2022-09-23T06:13:44.921Z,8.29
2022-09-23T06:16:46.708Z,8.35
2022-09-23T06:19:48.828Z,8.44
2022-09-23T06:22:54.324Z,8.50
2022-09-23T06:26:05.071Z,8.54
2022-09-23T06:29:13.051Z,8.54
2022-09-23T06:32:14.831Z,8.57
2022-09-23T06:35:26.345Z,8.53
2022-09-23T06:38:30.522Z,8.52
2022-09-23T06:41:32.605Z,8.50
2022-09-23T06:44:34.890Z,8.48
2022-09-23T06:47:37.701Z,8.48
2022-09-23T06:50:39.870Z,8.46
2022-09-23T06:53:41.944Z,8.49
2022-09-23T06:56:47.490Z,8.49
2022-09-23T06:59:50.334Z,8.51
2022-09-23T07:02:52.371Z,8.51
2022-09-23T07:05:58.396Z,8.52
2022-09-23T07:09:01.249Z,8.53
2022-09-23T07:12:03.068Z,8.56
2022-09-23T07:15:05.473Z,8.61
2022-09-23T07:18:07.615Z,8.65
2022-09-23T07:21:15.979Z,8.74
2022-09-23T07:24:18.142Z,8.78
2022-09-23T07:27:20.306Z,8.86
2022-09-23T07:30:25.751Z,8.96
2022-09-23T07:33:33.129Z,9.09
2022-09-23T07:36:37.389Z,9.22
2022-09-23T07:39:40.146Z,9.37
2022-09-23T07:42:41.776Z,9.51
2022-09-23T07:45:43.631Z,9.64
2022-09-23T07:48:46.104Z,9.79
2022-09-23T07:51:48.892Z,9.96
2022-09-23T07:54:51.625Z,10.13
2022-09-23T07:57:53.185Z,10.25
2022-09-23T08:00:54.941Z,10.38
2022-09-23T08:03:58.266Z,10.44
2022-09-23T08:07:06.085Z,10.52
2022-09-23T08:10:08.484Z,10.59
2022-09-23T08:13:10.401Z,10.61
2022-09-23T08:16:12.242Z,10.64
2022-09-23T08:19:14.550Z,10.66
2022-09-23T08:22:16.553Z,10.68
2022-09-23T08:25:22.093Z,10.71
2022-09-23T08:28:25.481Z,10.77
2022-09-23T08:31:27.649Z,10.86
2022-09-23T08:34:29.595Z,10.93
2022-09-23T08:37:31.350Z,11.01
2022-09-23T08:40:41.778Z,11.09
2022-09-23T08:43:50.182Z,11.18
2022-09-23T08:47:07.522Z,11.27
2022-09-23T08:50:15.591Z,11.35
2022-09-23T08:53:35.703Z,11.43
2022-09-23T08:56:38.913Z,11.46
2022-09-23T08:59:43.290Z,11.48
2022-09-23T09:02:44.928Z,11.51
2022-09-23T09:05:54.177Z,11.53
2022-09-23T09:09:00.893Z,11.60
2022-09-23T09:12:18.843Z,11.73
2022-09-23T09:15:25.270Z,11.90
2022-09-23T09:18:30.701Z,12.05
2022-09-23T09:21:39.041Z,12.21
2022-09-23T09:24:40.973Z,12.37
2022-09-23T09:27:43.109Z,12.57
2022-09-23T09:30:48.614Z,12.77
2022-09-23T09:33:58.296Z,13.00
2022-09-23T09:37:09.097Z,13.22
2022-09-23T09:40:15.286Z,13.43
2022-09-23T09:43:23.448Z,13.61
2022-09-23T09:46:47.074Z,13.79
2022-09-23T09:49:59.041Z,13.97
2022-09-23T09:53:28.502Z,14.06
2022-09-23T09:56:36.205Z,14.13
2022-09-23T09:59:44.044Z,14.31
2022-09-23T10:02:51.650Z,14.49
2022-09-23T10:05:54.545Z,14.58
2022-09-23T10:09:05.331Z,14.60
2022-09-23T10:12:19.223Z,14.59
2022-09-23T10:15:34.662Z,14.74
2022-09-23T10:18:47.532Z,14.74
2022-09-23T10:21:54.628Z,14.81
2022-09-23T10:25:01.621Z,14.99
2022-09-23T10:28:32.259Z,15.10
2022-09-23T10:31:35.872Z,15.20
2022-09-23T10:34:43.929Z,15.51
2022-09-23T10:37:45.688Z,15.72
2022-09-23T10:41:06.573Z,15.86
2022-09-23T10:44:56.294Z,15.98
2022-09-23T10:48:27.290Z,16.17
2022-09-23T10:51:48.371Z,16.36
2022-09-23T10:55:27.723Z,16.40
2022-09-23T10:58:58.993Z,16.57
2022-09-23T11:02:17.516Z,16.80
2022-09-23T11:05:55.524Z,16.94
2022-09-23T11:09:34.646Z,17.10
2022-09-23T11:12:57.526Z,17.32
2022-09-23T11:16:08.719Z,17.50
2022-09-23T11:19:50.005Z,17.70
2022-09-23T11:23:20.624Z,17.81
2022-09-23T11:26:40.886Z,18.00
2022-09-23T11:30:10.962Z,18.14
2022-09-23T11:33:31.449Z,18.28
2022-09-23T11:36:53.143Z,18.38
2022-09-23T11:40:13.789Z,18.46
2022-09-23T11:43:23.848Z,18.49
2022-09-23T11:46:51.035Z,18.55
2022-09-23T11:50:00.789Z,18.63
2022-09-23T11:53:15.730Z,18.78
2022-09-23T11:56:35.060Z,18.91
2022-09-23T11:59:51.356Z,18.95
2022-09-23T12:03:06.655Z,18.98
2022-09-23T12:06:36.465Z,18.99
2022-09-23T12:10:05.914Z,19.07
2022-09-23T12:13:23.153Z,19.07
2022-09-23T12:16:30.722Z,19.06
2022-09-23T12:19:52.087Z,19.06
2022-09-23T12:23:31.552Z,18.96
2022-09-23T12:26:34.484Z,18.87
2022-09-23T12:29:38.346Z,18.76
2022-09-23T12:32:42.363Z,18.75
2022-09-23T12:35:46.328Z,18.86
2022-09-23T12:39:22.087Z,18.95
2022-09-23T12:42:27.683Z,19.00
2022-09-23T12:45:32.903Z,19.05
2022-09-23T12:48:45.488Z,19.05
2022-09-23T12:52:25.571Z,19.18
2022-09-23T12:55:36.239Z,19.24
2022-09-23T12:58:47.487Z,19.29
2022-09-23T13:01:49.788Z,19.38
2022-09-23T13:05:35.305Z,19.36
2022-09-23T13:08:40.192Z,19.21
2022-09-23T13:11:48.067Z,19.17
2022-09-23T13:14:54.093Z,19.09
2022-09-23T13:18:34.162Z,18.95
2022-09-23T13:21:49.610Z,18.93
2022-09-23T13:25:03.003Z,18.99
2022-09-23T13:28:18.578Z,18.98
2022-09-23T13:31:21.343Z,18.92
2022-09-23T13:34:27.049Z,18.88
2022-09-23T13:37:37.921Z,18.82
2022-09-23T13:40:41.808Z,18.77
2022-09-23T13:43:53.963Z,18.78
2022-09-23T13:46:59.744Z,18.81
2022-09-23T13:50:02.807Z,18.81
2022-09-23T13:53:13.152Z,18.77
2022-09-23T13:56:15.805Z,18.76
2022-09-23T13:59:25.219Z,18.82
2022-09-23T14:02:28.622Z,18.95
2022-09-23T14:05:35.817Z,19.10
2022-09-23T14:08:51.171Z,19.30
2022-09-23T14:11:54.775Z,19.45
2022-09-23T14:14:57.295Z,19.50
2022-09-23T14:18:08.407Z,19.51
2022-09-23T14:21:36.990Z,19.28
2022-09-23T14:24:39.456Z,19.02
2022-09-23T14:27:43.581Z,18.81
2022-09-23T14:30:48.035Z,18.66
2022-09-23T14:33:49.910Z,18.60
2022-09-23T14:37:24.437Z,18.52
2022-09-23T14:40:29.354Z,18.46
2022-09-23T14:43:31.324Z,18.34
2022-09-23T14:46:37.321Z,18.19
2022-09-23T14:50:00.480Z,18.09
2022-09-23T14:53:03.117Z,17.99
2022-09-23T14:56:08.014Z,17.89
2022-09-23T14:59:25.854Z,17.80
2022-09-23T15:02:47.585Z,17.75
2022-09-23T15:05:57.871Z,17.68
2022-09-23T15:08:59.744Z,17.60
2022-09-23T15:12:08.297Z,17.49
2022-09-23T15:15:13.525Z,17.38
2022-09-23T15:18:35.855Z,17.31
2022-09-23T15:21:42.509Z,17.18
2022-09-23T15:24:45.904Z,17.10
2022-09-23T15:28:17.708Z,17.01
2022-09-23T15:31:21.298Z,16.91
2022-09-23T15:34:22.983Z,16.79
2022-09-23T15:37:24.846Z,16.65
2022-09-23T15:40:30.106Z,16.52
2022-09-23T15:43:31.953Z,16.40
2022-09-23T15:46:34.015Z,16.28
2022-09-23T15:49:41.748Z,16.18
2022-09-23T15:52:45.173Z,16.06
2022-09-23T15:55:47.188Z,15.92
2022-09-23T15:58:49.026Z,15.78
2022-09-23T16:01:52.454Z,15.63
2022-09-23T16:04:54.170Z,15.48
2022-09-23T16:07:55.941Z,15.36
2022-09-23T16:10:57.819Z,15.23
2022-09-23T16:14:00.888Z,15.14
2022-09-23T16:17:03.463Z,15.03
2022-09-23T16:20:05.505Z,14.95
2022-09-23T16:23:08.554Z,14.85
2022-09-23T16:26:29.571Z,14.77
2022-09-23T16:29:31.255Z,14.68
2022-09-23T16:32:33.948Z,14.59
2022-09-23T16:35:37.536Z,14.52
2022-09-23T16:38:39.423Z,14.45
2022-09-23T16:41:42.984Z,14.37
2022-09-23T16:44:44.836Z,14.31
2022-09-23T16:47:48.826Z,14.23
2022-09-23T16:50:57.238Z,14.16
2022-09-23T16:53:59.840Z,14.10
2022-09-23T16:57:01.721Z,14.04
2022-09-23T17:00:32.578Z,13.98
2022-09-23T17:03:43.351Z,13.93
2022-09-23T17:06:52.439Z,13.87
2022-09-23T17:09:54.432Z,13.81
2022-09-23T17:12:56.545Z,13.76
2022-09-23T17:15:58.989Z,13.70
2022-09-23T17:19:06.907Z,13.65
2022-09-23T17:22:09.328Z,13.57
2022-09-23T17:25:11.068Z,13.51
2022-09-23T17:28:12.771Z,13.47
2022-09-23T17:31:14.697Z,13.41
2022-09-23T17:34:18.892Z,13.38
2022-09-23T17:37:20.698Z,13.36
2022-09-23T17:40:24.583Z,13.33
2022-09-23T17:43:27.127Z,13.32
2022-09-23T17:46:31.042Z,13.30
2022-09-23T17:49:35.277Z,13.28
2022-09-23T17:52:37.037Z,13.25
2022-09-23T17:55:39.301Z,13.25
2022-09-23T17:58:41.610Z,13.23
2022-09-23T18:01:43.561Z,13.21
2022-09-23T18:04:46.224Z,13.18
2022-09-23T18:07:48.059Z,13.13
2022-09-23T18:10:49.807Z,13.10
2022-09-23T18:14:24.122Z,13.07
2022-09-23T18:17:25.831Z,13.05
2022-09-23T18:20:27.842Z,13.02
2022-09-23T18:23:30.929Z,13.00
2022-09-23T18:26:33.905Z,12.97
2022-09-23T18:29:35.901Z,12.95
2022-09-23T18:32:37.745Z,12.91
2022-09-23T18:35:39.486Z,12.87
2022-09-23T18:38:41.234Z,12.86
2022-09-23T18:41:43.272Z,12.83
2022-09-23T18:44:45.093Z,12.80
2022-09-23T18:48:11.381Z,12.77
2022-09-23T18:51:14.942Z,12.77
2022-09-23T18:54:17.280Z,12.75
2022-09-23T18:57:19.029Z,12.71
2022-09-23T19:00:20.673Z,12.70
2022-09-23T19:03:22.424Z,12.68
2022-09-23T19:06:25.037Z,12.65
2022-09-23T19:09:26.864Z,12.62
2022-09-23T19:12:28.451Z,12.59
2022-09-23T19:15:30.282Z,12.58
2022-09-23T19:18:33.860Z,12.55
2022-09-23T19:21:35.679Z,12.53
2022-09-23T19:24:37.629Z,12.49
2022-09-23T19:27:40.416Z,12.46
2022-09-23T19:30:42.326Z,12.43
2022-09-23T19:33:49.831Z,12.39
2022-09-23T19:36:53.107Z,12.34
2022-09-23T19:39:55.205Z,12.30
2022-09-23T19:42:57.029Z,12.27
2022-09-23T19:45:58.753Z,12.31
2022-09-23T19:49:01.085Z,12.32
2022-09-23T19:52:03.611Z,12.33
2022-09-23T19:55:06.762Z,12.34
2022-09-23T19:58:09.377Z,12.34
2022-09-23T20:01:11.171Z,12.33
2022-09-23T20:04:13.077Z,12.34
2022-09-23T20:07:17.239Z,12.35
2022-09-23T20:10:19.342Z,12.36
2022-09-23T20:13:21.745Z,12.36
2022-09-23T20:16:24.303Z,12.37
2022-09-23T20:19:26.337Z,12.37
2022-09-23T20:22:33.147Z,12.36
2022-09-23T20:25:55.239Z,12.36
2022-09-23T20:28:59.661Z,12.35
2022-09-23T20:32:01.738Z,12.33
2022-09-23T20:35:05.959Z,12.34
2022-09-23T20:38:08.837Z,12.32
2022-09-23T20:41:10.487Z,12.33
2022-09-23T20:44:12.654Z,12.34
2022-09-23T20:47:17.014Z,12.32
2022-09-23T20:50:19.318Z,12.29
2022-09-23T20:53:22.876Z,12.26
2022-09-23T20:56:25.512Z,12.24
2022-09-23T20:59:27.526Z,12.20
2022-09-23T21:02:29.294Z,12.17
2022-09-23T21:05:31.022Z,12.14
2022-09-23T21:08:34.857Z,12.12
2022-09-23T21:11:36.469Z,12.08
2022-09-23T21:14:38.453Z,12.07
2022-09-23T21:17:41.432Z,12.04
2022-09-23T21:20:53.995Z,12.03
2022-09-23T21:24:11.653Z,12.04
2022-09-23T21:27:19.341Z,12.02
2022-09-23T21:30:20.989Z,12.03
2022-09-23T21:33:23.230Z,12.02
2022-09-23T21:36:25.844Z,12.01
2022-09-23T21:39:27.469Z,12.00
2022-09-23T21:42:29.083Z,12.00
2022-09-23T21:45:31.796Z,11.96
2022-09-23T21:48:36.115Z,11.95
2022-09-23T21:51:41.375Z,11.93
2022-09-23T21:54:43.398Z,11.90
2022-09-23T21:57:46.301Z,11.88
2022-09-23T22:00:48.154Z,11.86
2022-09-23T22:03:53.498Z,11.88
2022-09-23T22:06:55.379Z,11.88
2022-09-23T22:09:57.180Z,11.87
2022-09-23T22:12:59.023Z,11.87
2022-09-23T22:16:03.969Z,11.87
2022-09-23T22:19:09.491Z,11.85
2022-09-23T22:22:13.664Z,11.84
2022-09-23T22:25:15.753Z,11.82
2022-09-23T22:28:35.990Z,11.81
2022-09-23T22:31:56.651Z,11.83
2022-09-23T22:34:58.399Z,11.84
2022-09-23T22:38:01.102Z,11.85
2022-09-23T22:41:02.955Z,11.84
2022-09-23T22:44:05.199Z,11.86
2022-09-23T22:47:07.453Z,11.87
2022-09-23T22:50:09.751Z,11.88
2022-09-23T22:53:11.663Z,11.88
2022-09-23T22:56:13.305Z,11.89
2022-09-23T22:59:15.093Z,11.89
2022-09-23T23:02:18.985Z,11.89
2022-09-23T23:05:20.839Z,11.89
2022-09-23T23:08:22.637Z,11.90
2022-09-23T23:11:24.702Z,11.89
2022-09-23T23:14:28.167Z,11.89
2022-09-23T23:17:30.263Z,11.90
2022-09-23T23:20:32.493Z,11.90
2022-09-23T23:23:42.805Z,11.88
2022-09-23T23:26:45.303Z,11.85
2022-09-23T23:29:47.224Z,11.84
2022-09-23T23:32:48.896Z,11.82
2022-09-23T23:35:51.334Z,11.84
2022-09-23T23:38:53.372Z,11.81
2022-09-23T23:41:57.490Z,11.79
2022-09-23T23:44:59.092Z,11.77
2022-09-23T23:48:00.951Z,11.78
2022-09-23T23:51:05.916Z,11.79
2022-09-23T23:54:07.567Z,11.82
2022-09-23T23:57:09.585Z,11.82
